createdAt,value
2018-12-20T00:00:05.335Z,7.49
2018-12-20T00:01:05.163Z,7.42
2018-12-20T00:02:05.110Z,7.41
2018-12-20T00:03:05.076Z,7.45
2018-12-20T00:04:04.994Z,7.42
2018-12-20T00:05:04.917Z,7.49
2018-12-20T00:06:04.903Z,7.45
2018-12-20T00:07:04.794Z,7.49
2018-12-20T00:08:04.869Z,7.45
2018-12-20T00:09:04.674Z,7.41
2018-12-20T00:10:04.628Z,7.42
2018-12-20T00:11:04.552Z,7.45
2018-12-20T00:12:04.509Z,7.49
2018-12-20T00:13:04.500Z,7.41
2018-12-20T00:14:04.454Z,7.38
2018-12-20T00:15:04.333Z,7.49
2018-12-20T00:16:04.364Z,7.45
2018-12-20T00:17:04.247Z,7.47
2018-12-20T00:18:04.174Z,7.53
2018-12-20T00:19:04.065Z,7.45
2018-12-20T00:20:04.117Z,7.45
2018-12-20T00:21:04.133Z,7.45
2018-12-20T00:22:03.892Z,7.42
2018-12-20T00:23:03.847Z,7.45
2018-12-20T00:24:03.766Z,7.47
2018-12-20T00:25:03.706Z,7.45
2018-12-20T00:26:03.639Z,7.47
2018-12-20T00:27:03.615Z,7.47
2018-12-20T00:28:03.615Z,7.44
2018-12-20T00:29:03.479Z,7.47
2018-12-20T00:30:03.408Z,7.44
2018-12-20T00:31:03.337Z,7.49
2018-12-20T00:32:03.339Z,7.41
2018-12-20T00:33:03.266Z,7.47
2018-12-20T00:34:03.213Z,7.45
2018-12-20T00:35:03.242Z,7.44
2018-12-20T00:36:03.069Z,7.44
2018-12-20T00:37:02.998Z,7.44
2018-12-20T00:38:02.979Z,7.42
2018-12-20T00:39:02.849Z,7.45
2018-12-20T00:40:06.375Z,7.45
2018-12-20T00:41:02.729Z,7.44
2018-12-20T00:42:02.773Z,7.47
2018-12-20T00:43:02.618Z,7.49
2018-12-20T00:44:02.546Z,7.44
2018-12-20T00:45:02.635Z,7.47
2018-12-20T00:46:02.423Z,7.38
2018-12-20T00:47:02.379Z,7.44
2018-12-20T00:48:02.459Z,7.44
2018-12-20T00:49:02.298Z,7.52
2018-12-20T00:50:02.311Z,7.45
2018-12-20T00:51:02.119Z,7.52
2018-12-20T00:52:02.057Z,7.50
2018-12-20T00:53:02.030Z,7.50
2018-12-20T00:54:02.011Z,7.47
2018-12-20T00:55:01.876Z,7.49
2018-12-20T00:56:01.814Z,7.50
2018-12-20T00:57:01.832Z,7.44
2018-12-20T00:58:01.791Z,7.44
2018-12-20T00:59:01.635Z,7.49
2018-12-20T01:00:01.714Z,7.47
2018-12-20T01:01:01.512Z,7.45
2018-12-20T01:02:01.454Z,7.47
2018-12-20T01:03:01.417Z,7.49
2018-12-20T01:04:01.368Z,7.49
2018-12-20T01:05:01.390Z,7.47
2018-12-20T01:06:01.207Z,7.50
2018-12-20T01:07:01.178Z,7.49
2018-12-20T01:08:01.159Z,7.49
2018-12-20T01:09:01.033Z,7.47
2018-12-20T01:10:01.064Z,7.44
2018-12-20T01:11:01.045Z,7.49
2018-12-20T01:12:00.861Z,7.50
2018-12-20T01:13:00.788Z,7.44
2018-12-20T01:14:00.727Z,7.45
2018-12-20T01:15:00.721Z,7.44
2018-12-20T01:16:00.824Z,7.50
2018-12-20T01:17:00.675Z,7.47
2018-12-20T01:18:00.564Z,7.55
2018-12-20T01:19:00.568Z,7.44
2018-12-20T01:20:00.355Z,7.47
2018-12-20T01:21:00.318Z,7.44
2018-12-20T01:22:00.349Z,7.52
2018-12-20T01:23:00.379Z,7.58
2018-12-20T01:24:00.112Z,7.55
2018-12-20T01:25:00.204Z,7.50
2018-12-20T01:25:59.991Z,7.47
2018-12-20T01:27:00.052Z,7.47
2018-12-20T01:27:59.988Z,7.44
2018-12-20T01:28:59.816Z,7.47
2018-12-20T01:29:59.747Z,7.41
2018-12-20T01:30:59.732Z,7.50
2018-12-20T01:31:59.655Z,7.50
2018-12-20T01:32:59.564Z,7.41
2018-12-20T01:33:59.666Z,7.44
2018-12-20T01:34:59.482Z,7.44
2018-12-20T01:35:59.383Z,7.47
2018-12-20T01:36:59.327Z,7.49
2018-12-20T01:37:59.305Z,7.47
2018-12-20T01:38:59.208Z,7.44
2018-12-20T01:39:59.143Z,7.52
2018-12-20T01:40:59.078Z,7.38
2018-12-20T01:41:59.103Z,7.47
2018-12-20T01:42:59.017Z,7.44
2018-12-20T01:43:58.922Z,7.49
2018-12-20T01:44:58.994Z,7.49
2018-12-20T01:45:58.779Z,7.47
2018-12-20T01:46:58.740Z,7.44
2018-12-20T01:47:58.756Z,7.47
2018-12-20T01:48:58.593Z,7.53
2018-12-20T01:49:58.534Z,7.52
2018-12-20T01:50:58.469Z,7.50
2018-12-20T01:51:58.409Z,7.49
2018-12-20T01:52:58.532Z,7.47
2018-12-20T01:53:58.407Z,7.53
2018-12-20T01:54:58.274Z,7.41
2018-12-20T01:55:58.443Z,7.53
2018-12-20T01:56:58.261Z,7.50
2018-12-20T01:57:58.212Z,7.41
2018-12-20T01:58:57.985Z,7.50
2018-12-20T01:59:58.105Z,7.53
2018-12-20T02:00:58.206Z,7.49
2018-12-20T02:01:57.839Z,7.50
2018-12-20T02:02:57.759Z,7.49
2018-12-20T02:03:57.711Z,7.41
2018-12-20T02:04:57.832Z,7.50
2018-12-20T02:05:57.563Z,7.53
2018-12-20T02:06:57.499Z,7.49
2018-12-20T02:07:57.584Z,7.47
2018-12-20T02:08:57.396Z,7.45
2018-12-20T02:09:57.434Z,7.44
2018-12-20T02:10:57.402Z,7.47
2018-12-20T02:11:57.213Z,7.52
2018-12-20T02:12:57.168Z,7.50
2018-12-20T02:13:57.326Z,7.47
2018-12-20T02:15:01.523Z,7.49
2018-12-20T02:15:56.958Z,7.47
2018-12-20T02:16:57.030Z,7.52
2018-12-20T02:17:56.923Z,7.49
2018-12-20T02:18:56.871Z,7.52
2018-12-20T02:19:56.706Z,7.52
2018-12-20T02:20:56.694Z,7.55
2018-12-20T02:21:56.801Z,7.52
2018-12-20T02:22:56.524Z,7.52
2018-12-20T02:23:56.604Z,7.55
2018-12-20T02:24:56.503Z,7.50
2018-12-20T02:25:56.343Z,7.42
2018-12-20T02:26:56.288Z,7.50
2018-12-20T02:27:56.353Z,7.53
2018-12-20T02:28:56.164Z,7.50
2018-12-20T02:29:56.101Z,7.53
2018-12-20T02:30:56.046Z,7.55
2018-12-20T02:31:55.978Z,7.58
2018-12-20T02:32:56.188Z,7.49
2018-12-20T02:33:55.949Z,7.55
2018-12-20T02:34:55.966Z,7.47
2018-12-20T02:35:55.787Z,7.55
2018-12-20T02:36:55.675Z,7.50
2018-12-20T02:37:55.639Z,7.52
2018-12-20T02:38:55.563Z,7.53
2018-12-20T02:39:55.492Z,7.49
2018-12-20T02:40:55.446Z,7.55
2018-12-20T02:41:55.387Z,7.52
2018-12-20T02:42:55.484Z,7.50
2018-12-20T02:43:55.251Z,7.55
2018-12-20T02:44:55.606Z,7.55
2018-12-20T02:45:55.127Z,7.55
2018-12-20T02:46:55.066Z,7.50
2018-12-20T02:47:55.087Z,7.47
2018-12-20T02:48:55.063Z,7.55
2018-12-20T02:49:54.886Z,7.50
2018-12-20T02:50:54.823Z,7.55
2018-12-20T02:51:54.773Z,7.53
2018-12-20T02:52:54.863Z,7.50
2018-12-20T02:53:54.647Z,7.49
2018-12-20T02:54:54.677Z,7.50
2018-12-20T02:55:54.602Z,7.44
2018-12-20T02:56:54.464Z,7.50
2018-12-20T02:57:54.611Z,7.50
2018-12-20T02:58:54.338Z,7.50
2018-12-20T02:59:54.275Z,7.52
2018-12-20T03:00:54.280Z,7.49
2018-12-20T03:01:54.169Z,7.47
2018-12-20T03:02:54.093Z,7.50
2018-12-20T03:03:54.033Z,7.49
2018-12-20T03:04:53.972Z,7.55
2018-12-20T03:05:53.962Z,7.49
2018-12-20T03:06:53.934Z,7.49
2018-12-20T03:07:53.980Z,7.47
2018-12-20T03:08:53.729Z,7.49
2018-12-20T03:09:53.682Z,7.45
2018-12-20T03:10:53.606Z,7.49
2018-12-20T03:11:53.550Z,7.55
2018-12-20T03:12:53.591Z,7.53
2018-12-20T03:13:53.448Z,7.47
2018-12-20T03:14:53.363Z,7.52
2018-12-20T03:15:53.350Z,7.47
2018-12-20T03:16:53.377Z,7.50
2018-12-20T03:17:53.235Z,7.44
2018-12-20T03:18:53.199Z,7.47
2018-12-20T03:19:53.115Z,7.49
2018-12-20T03:20:53.045Z,7.53
2018-12-20T03:21:52.950Z,7.42
2018-12-20T03:22:52.877Z,7.56
2018-12-20T03:23:52.827Z,7.47
2018-12-20T03:24:52.756Z,7.50
2018-12-20T03:25:52.697Z,7.55
2018-12-20T03:26:52.633Z,7.53
2018-12-20T03:27:53.011Z,7.47
2018-12-20T03:28:52.554Z,7.50
2018-12-20T03:29:52.456Z,7.50
2018-12-20T03:30:52.572Z,7.52
2018-12-20T03:31:52.391Z,7.55
2018-12-20T03:32:52.272Z,7.60
2018-12-20T03:33:52.212Z,7.56
2018-12-20T03:34:52.267Z,7.58
2018-12-20T03:35:52.089Z,7.59
2018-12-20T03:36:52.089Z,7.55
2018-12-20T03:37:51.974Z,7.56
2018-12-20T03:38:51.905Z,7.53
2018-12-20T03:39:52.019Z,7.52
2018-12-20T03:40:51.788Z,7.58
2018-12-20T03:41:51.828Z,7.58
2018-12-20T03:42:51.697Z,7.53
2018-12-20T03:43:51.722Z,7.55
2018-12-20T03:44:51.609Z,7.58
2018-12-20T03:45:51.509Z,7.62
2018-12-20T03:46:51.419Z,7.58
2018-12-20T03:47:51.382Z,7.52
2018-12-20T03:48:51.425Z,7.60
2018-12-20T03:49:51.236Z,7.53
2018-12-20T03:50:51.176Z,7.55
2018-12-20T03:51:51.127Z,7.59
2018-12-20T03:52:51.086Z,7.58
2018-12-20T03:53:51.092Z,7.53
2018-12-20T03:54:51.037Z,7.52
2018-12-20T03:55:50.914Z,7.59
2018-12-20T03:56:50.846Z,7.55
2018-12-20T03:57:51.064Z,7.55
2018-12-20T03:58:50.717Z,7.56
2018-12-20T03:59:50.632Z,7.60
2018-12-20T04:00:50.654Z,7.58
2018-12-20T04:01:50.553Z,7.53
2018-12-20T04:02:50.684Z,7.59
2018-12-20T04:03:50.565Z,7.56
2018-12-20T07:48:32.230Z,7.66
2018-12-20T07:49:28.400Z,7.62
2018-12-20T07:51:21.212Z,7.72
2018-12-20T07:52:21.112Z,7.62
2018-12-20T07:54:13.928Z,7.77
2018-12-20T07:55:13.836Z,7.77
2018-12-20T07:57:06.655Z,7.77
2018-12-20T07:58:06.548Z,7.77
2018-12-20T07:59:59.337Z,7.72
2018-12-20T08:00:59.266Z,7.72
2018-12-20T08:02:52.078Z,7.78
2018-12-20T08:03:51.979Z,7.75
2018-12-20T08:05:44.790Z,7.72
2018-12-20T08:06:44.691Z,7.75
2018-12-20T08:08:37.473Z,7.72
2018-12-20T08:09:37.408Z,7.77
2018-12-20T08:11:30.222Z,7.77
2018-12-20T08:12:30.121Z,7.75
2018-12-20T08:14:22.903Z,7.78
2018-12-20T08:15:22.834Z,7.72
2018-12-20T08:17:15.655Z,7.78
2018-12-20T08:18:15.551Z,7.78
2018-12-20T08:20:08.435Z,7.77
2018-12-20T08:21:08.265Z,7.74
2018-12-20T08:23:01.573Z,7.75
2018-12-20T08:24:01.473Z,7.78
2018-12-20T08:25:01.413Z,7.78
2018-12-20T08:26:01.353Z,7.72
2018-12-20T08:27:01.291Z,7.72
2018-12-20T08:28:01.231Z,7.71
2018-12-20T08:29:01.175Z,7.81
2018-12-20T08:30:01.113Z,7.71
2018-12-20T08:31:01.048Z,7.74
2018-12-20T08:32:00.991Z,7.77
2018-12-20T08:33:00.928Z,7.82
2018-12-20T08:34:00.871Z,7.69
2018-12-20T08:35:00.808Z,7.74
2018-12-20T08:36:00.749Z,7.71
2018-12-20T08:37:00.689Z,7.74
2018-12-20T08:38:00.627Z,7.72
2018-12-20T08:39:00.564Z,7.72
2018-12-20T08:40:00.505Z,7.74
2018-12-20T08:41:00.446Z,7.74
2018-12-20T08:42:00.385Z,7.72
2018-12-20T08:43:00.322Z,7.78
2018-12-20T08:44:00.262Z,7.72
2018-12-20T08:45:00.210Z,7.79
2018-12-20T08:46:00.143Z,7.71
2018-12-20T08:47:00.080Z,7.74
2018-12-20T08:48:00.021Z,7.79
2018-12-20T08:48:59.960Z,7.67
2018-12-20T08:49:59.905Z,7.77
2018-12-20T08:50:59.838Z,7.72
2018-12-20T08:51:59.782Z,7.79
2018-12-20T08:52:59.722Z,7.75
2018-12-20T08:53:59.659Z,7.77
2018-12-20T08:54:59.601Z,7.72
2018-12-20T08:55:59.535Z,7.67
2018-12-20T08:56:59.474Z,7.74
2018-12-20T08:57:59.417Z,7.75
2018-12-20T08:58:59.352Z,7.71
2018-12-20T08:59:59.295Z,7.78
2018-12-20T09:00:59.274Z,7.69
2018-12-20T09:01:59.179Z,7.72
2018-12-20T09:02:59.114Z,7.75
2018-12-20T09:03:59.050Z,7.85
2018-12-20T09:04:58.998Z,7.78
2018-12-20T09:05:58.930Z,7.77
2018-12-20T09:06:58.871Z,7.78
2018-12-20T09:07:58.815Z,7.75
2018-12-20T09:08:58.747Z,7.78
2018-12-20T09:09:58.687Z,7.71
2018-12-20T09:10:58.627Z,7.75
2018-12-20T09:11:58.566Z,7.87
2018-12-20T09:12:58.514Z,7.78
2018-12-20T09:13:58.445Z,7.85
2018-12-20T09:14:58.388Z,7.79
2018-12-20T09:15:58.323Z,7.85
2018-12-20T09:17:02.849Z,7.75
2018-12-20T09:17:58.204Z,7.82
2018-12-20T09:18:58.141Z,7.78
2018-12-20T09:19:58.083Z,7.90
2018-12-20T09:20:58.021Z,7.87
2018-12-20T09:21:57.961Z,7.81
2018-12-20T09:22:57.899Z,7.87
2018-12-20T09:23:57.840Z,7.82
2018-12-20T09:24:57.778Z,7.85
2018-12-20T09:25:57.718Z,7.79
2018-12-20T09:26:57.658Z,7.81
2018-12-20T09:27:57.595Z,7.85
2018-12-20T09:28:57.538Z,7.81
2018-12-20T09:29:57.478Z,7.82
2018-12-20T09:30:57.415Z,7.85
2018-12-20T09:31:57.354Z,7.85
2018-12-20T09:32:57.296Z,7.84
2018-12-20T09:33:57.238Z,7.81
2018-12-20T09:34:57.176Z,7.82
2018-12-20T09:35:57.112Z,7.85
2018-12-20T09:36:57.051Z,7.81
2018-12-20T09:37:57.030Z,7.85
2018-12-20T09:38:56.931Z,7.85
2018-12-20T09:39:56.871Z,7.81
2018-12-20T09:40:56.812Z,7.84
2018-12-20T09:41:56.749Z,7.81
2018-12-20T09:42:56.689Z,7.87
2018-12-20T09:43:56.629Z,7.87
2018-12-20T09:44:56.569Z,7.82
2018-12-20T09:45:56.511Z,7.82
2018-12-20T09:46:56.447Z,7.87
2018-12-20T09:47:56.390Z,7.87
2018-12-20T09:48:56.329Z,7.96
2018-12-20T09:49:56.266Z,7.85
2018-12-20T09:50:56.207Z,7.82
2018-12-20T09:51:56.143Z,7.87
2018-12-20T09:52:56.303Z,7.93
2018-12-20T09:53:56.023Z,7.92
2018-12-20T09:54:55.975Z,7.85
2018-12-20T09:55:55.906Z,7.90
2018-12-20T09:56:55.846Z,7.84
2018-12-20T09:57:55.787Z,7.92
2018-12-20T09:58:55.721Z,7.96
2018-12-20T09:59:55.669Z,7.87
2018-12-20T10:00:55.603Z,7.93
2018-12-20T10:01:55.541Z,7.89
2018-12-20T10:02:55.479Z,7.96
2018-12-20T10:03:55.418Z,7.94
2018-12-20T10:04:55.357Z,7.93
2018-12-20T10:05:55.298Z,7.90
2018-12-20T10:06:55.237Z,7.96
2018-12-20T10:07:55.176Z,7.90
2018-12-20T10:08:55.121Z,7.93
2018-12-20T10:09:55.059Z,7.92
2018-12-20T10:10:54.994Z,7.96
2018-12-20T10:11:54.933Z,7.94
2018-12-20T10:12:54.873Z,7.96
2018-12-20T10:13:54.813Z,7.96
2018-12-20T10:14:54.757Z,7.94
2018-12-20T10:15:54.694Z,7.92
2018-12-20T10:16:54.631Z,7.99
2018-12-20T10:17:54.573Z,7.99
2018-12-20T10:18:54.514Z,8.00
2018-12-20T10:19:54.450Z,7.92
2018-12-20T10:20:54.390Z,7.99
2018-12-20T10:21:54.329Z,7.97
2018-12-20T10:22:54.267Z,7.94
2018-12-20T10:23:54.207Z,7.94
2018-12-20T10:24:54.149Z,8.02
2018-12-20T10:25:54.087Z,8.04
2018-12-20T10:26:54.028Z,8.03
2018-12-20T10:27:53.966Z,7.99
2018-12-20T10:28:53.906Z,8.04
2018-12-20T10:29:53.845Z,8.03
2018-12-20T10:30:53.790Z,8.07
2018-12-20T10:31:53.725Z,8.08
2018-12-20T10:32:53.664Z,8.04
2018-12-20T10:33:53.604Z,8.04
2018-12-20T10:34:53.587Z,8.04
2018-12-20T10:35:53.484Z,8.04
2018-12-20T10:36:53.423Z,8.08
2018-12-20T10:37:53.365Z,8.04
2018-12-20T10:38:53.301Z,8.10
2018-12-20T10:39:53.241Z,8.03
2018-12-20T10:40:53.185Z,8.03
2018-12-20T10:41:53.120Z,8.02
2018-12-20T10:42:53.060Z,8.11
2018-12-20T10:43:52.999Z,8.07
2018-12-20T10:44:52.942Z,8.07
2018-12-20T10:45:52.879Z,8.04
2018-12-20T10:46:52.817Z,8.12
2018-12-20T10:47:52.760Z,8.08
2018-12-20T10:48:52.697Z,8.10
2018-12-20T10:49:52.637Z,8.10
2018-12-20T10:50:52.576Z,8.08
2018-12-20T10:51:52.517Z,8.08
2018-12-20T10:52:52.455Z,8.11
2018-12-20T10:53:52.400Z,8.03
2018-12-20T10:54:52.339Z,8.14
2018-12-20T10:55:52.286Z,8.10
2018-12-20T10:56:52.219Z,8.11
2018-12-20T10:57:52.155Z,8.10
2018-12-20T10:58:52.092Z,8.11
2018-12-20T10:59:52.034Z,8.11
2018-12-20T11:00:51.972Z,8.15
2018-12-20T11:01:51.911Z,8.10
2018-12-20T11:02:51.915Z,8.15
2018-12-20T11:03:51.798Z,8.12
2018-12-20T11:04:51.731Z,8.10
2018-12-20T11:05:51.670Z,8.15
2018-12-20T11:06:51.612Z,8.07
2018-12-20T11:07:51.549Z,8.04
2018-12-20T11:08:51.488Z,8.15
2018-12-20T11:09:51.431Z,8.10
2018-12-20T11:10:51.368Z,8.11
2018-12-20T11:11:51.308Z,8.10
2018-12-20T11:12:51.247Z,8.04
2018-12-20T11:13:51.187Z,8.08
2018-12-20T11:14:51.130Z,8.03
2018-12-20T11:15:51.066Z,8.17
2018-12-20T11:16:51.009Z,8.15
2018-12-20T11:17:50.945Z,8.08
2018-12-20T11:18:50.886Z,8.14
2018-12-20T11:19:50.825Z,8.10
2018-12-20T11:20:50.764Z,8.18
2018-12-20T11:21:50.704Z,8.17
2018-12-20T11:22:50.646Z,8.17
2018-12-20T11:23:50.582Z,8.10
2018-12-20T11:24:50.522Z,8.17
2018-12-20T11:25:50.462Z,8.21
2018-12-20T11:26:50.401Z,8.15
2018-12-20T11:27:50.354Z,8.15
2018-12-20T11:28:50.282Z,8.18
2018-12-20T11:29:50.221Z,8.20
2018-12-20T11:30:50.160Z,8.15
2018-12-20T11:31:50.101Z,8.11
2018-12-20T11:32:50.040Z,8.18
2018-12-20T11:33:49.979Z,8.15
2018-12-20T11:34:49.922Z,8.04
2018-12-20T11:35:49.858Z,8.20
2018-12-20T11:36:49.799Z,8.20
2018-12-20T11:37:49.739Z,8.20
2018-12-20T11:38:49.680Z,8.20
2018-12-20T11:39:49.619Z,8.15
2018-12-20T11:40:49.557Z,8.18
2018-12-20T11:41:49.497Z,8.22
2018-12-20T11:42:49.440Z,8.11
2018-12-20T11:43:49.379Z,8.17
2018-12-20T11:44:49.317Z,8.20
2018-12-20T11:45:49.256Z,8.26
2018-12-20T11:46:49.220Z,8.17
2018-12-20T11:47:49.137Z,8.25
2018-12-20T11:48:49.075Z,8.21
2018-12-20T11:49:49.017Z,8.20
2018-12-20T11:50:48.975Z,8.21
2018-12-20T11:51:48.897Z,8.20
2018-12-20T11:52:48.835Z,8.17
2018-12-20T11:53:48.774Z,8.15
2018-12-20T11:54:48.714Z,8.20
2018-12-20T11:55:48.652Z,8.21
2018-12-20T11:56:48.592Z,8.20
2018-12-20T11:57:48.536Z,8.20
2018-12-20T11:58:48.471Z,8.20
2018-12-20T11:59:48.412Z,8.17
2018-12-20T12:00:48.351Z,8.20
2018-12-20T12:01:48.292Z,8.17
2018-12-20T12:02:48.229Z,8.22
2018-12-20T12:03:48.174Z,8.20
2018-12-20T12:04:48.111Z,8.22
2018-12-20T12:05:48.049Z,8.20
2018-12-20T12:06:47.988Z,8.17
2018-12-20T12:07:47.928Z,8.20
2018-12-20T12:08:47.872Z,8.21
2018-12-20T12:09:47.808Z,8.20
2018-12-20T12:10:47.746Z,8.22
2018-12-20T12:11:47.690Z,8.21
2018-12-20T12:12:47.628Z,8.17
2018-12-20T12:13:47.567Z,8.22
2018-12-20T12:14:47.505Z,8.21
2018-12-20T12:15:47.444Z,8.20
2018-12-20T12:16:47.385Z,8.20
2018-12-20T12:17:54.178Z,8.18
2018-12-20T12:18:47.264Z,8.15
2018-12-20T12:19:47.206Z,8.20
2018-12-20T12:20:47.143Z,8.17
2018-12-20T12:21:47.084Z,8.22
2018-12-20T12:22:47.021Z,8.17
2018-12-20T12:23:46.965Z,8.22
2018-12-20T12:24:46.902Z,8.14
2018-12-20T12:25:46.841Z,8.15
2018-12-20T12:26:46.781Z,8.22
2018-12-20T12:27:46.722Z,8.20
2018-12-20T12:28:46.664Z,8.29
2018-12-20T12:29:46.602Z,8.11
2018-12-20T12:30:46.542Z,8.18
2018-12-20T12:31:46.481Z,8.12
2018-12-20T12:32:46.420Z,8.18
2018-12-20T12:33:46.361Z,8.20
2018-12-20T12:34:46.298Z,8.20
2018-12-20T12:35:46.241Z,8.20
2018-12-20T12:36:46.184Z,8.15
2018-12-20T12:37:46.123Z,8.21
2018-12-20T12:38:46.063Z,8.25
2018-12-20T12:39:45.999Z,8.17
2018-12-20T12:40:45.943Z,8.20
2018-12-20T12:41:45.879Z,8.22
2018-12-20T12:42:45.819Z,8.17
2018-12-20T12:43:51.053Z,8.21
2018-12-20T12:44:45.697Z,8.14
2018-12-20T12:45:47.471Z,8.17
2018-12-20T12:46:45.576Z,8.21
2018-12-20T12:47:45.516Z,8.22
2018-12-20T12:48:45.455Z,8.18
2018-12-20T12:49:45.396Z,8.22
2018-12-20T12:50:45.335Z,8.21
2018-12-20T12:51:52.912Z,8.25
2018-12-20T12:52:45.215Z,8.25
2018-12-20T12:53:45.154Z,8.26
2018-12-20T12:54:45.093Z,8.15
2018-12-20T12:55:45.032Z,8.21
2018-12-20T12:56:44.973Z,8.21
2018-12-20T12:57:44.918Z,8.25
2018-12-20T12:58:44.854Z,8.21
2018-12-20T12:59:44.791Z,8.12
2018-12-20T13:00:44.730Z,8.17
2018-12-20T13:01:44.674Z,8.20
2018-12-20T13:02:44.611Z,8.25
2018-12-20T13:03:45.195Z,8.14
2018-12-20T13:04:44.492Z,8.22
2018-12-20T13:05:44.430Z,8.28
2018-12-20T13:06:44.369Z,8.14
2018-12-20T13:07:44.309Z,8.15
2018-12-20T13:08:44.257Z,8.15
2018-12-20T13:09:44.189Z,8.22
2018-12-20T13:10:44.128Z,8.12
2018-12-20T13:11:44.069Z,8.22
2018-12-20T13:12:44.007Z,8.18
2018-12-20T13:13:43.947Z,8.25
2018-12-20T13:14:43.887Z,8.29
2018-12-20T13:15:43.829Z,8.15
2018-12-20T13:16:43.789Z,8.29
2018-12-20T13:17:43.718Z,8.28
2018-12-20T13:18:43.646Z,8.22
2018-12-20T13:19:43.585Z,8.29
2018-12-20T13:20:43.525Z,8.14
2018-12-20T13:21:43.468Z,8.25
2018-12-20T13:22:43.406Z,8.12
2018-12-20T13:23:43.345Z,8.25
2018-12-20T13:24:43.284Z,8.21
2018-12-20T13:25:43.224Z,8.17
2018-12-20T13:26:43.166Z,8.28
2018-12-20T13:27:43.103Z,8.12
2018-12-20T13:28:43.043Z,8.28
2018-12-20T13:29:42.984Z,8.20
2018-12-20T13:30:42.922Z,8.17
2018-12-20T13:31:42.862Z,8.28
2018-12-20T13:32:42.802Z,8.22
2018-12-20T13:33:42.745Z,8.26
2018-12-20T13:34:42.681Z,8.20
2018-12-20T13:35:42.631Z,8.22
2018-12-20T13:36:42.561Z,8.17
2018-12-20T13:37:42.500Z,8.33
2018-12-20T13:38:42.441Z,8.18
2018-12-20T13:39:42.383Z,8.18
2018-12-20T13:40:42.319Z,8.28
2018-12-20T13:41:42.260Z,8.17
2018-12-20T13:42:42.202Z,8.30
2018-12-20T13:43:42.142Z,8.22
2018-12-20T13:44:42.079Z,8.28
2018-12-20T13:45:42.021Z,8.22
2018-12-20T13:46:41.958Z,8.21
2018-12-20T13:47:41.897Z,8.18
2018-12-20T13:48:41.838Z,8.28
2018-12-20T13:49:41.778Z,8.26
2018-12-20T13:50:41.716Z,8.22
2018-12-20T13:51:41.657Z,8.25
2018-12-20T13:52:41.602Z,8.30
2018-12-20T13:53:41.540Z,8.28
2018-12-20T13:54:41.477Z,8.26
2018-12-20T13:55:41.415Z,8.26
2018-12-20T13:56:41.355Z,8.21
2018-12-20T13:57:41.296Z,8.28
2018-12-20T13:58:41.235Z,8.28
2018-12-20T13:59:41.175Z,8.18
2018-12-20T14:00:41.117Z,8.22
2018-12-20T14:01:41.054Z,8.22
2018-12-20T14:02:40.995Z,8.28
2018-12-20T14:03:40.934Z,8.20
2018-12-20T14:04:40.877Z,8.25
2018-12-20T14:05:40.814Z,8.28
2018-12-20T14:06:40.752Z,8.18
2018-12-20T14:07:40.694Z,8.28
2018-12-20T14:08:40.640Z,8.30
2018-12-20T14:09:40.585Z,8.22
2018-12-20T14:10:40.511Z,8.28
2018-12-20T14:11:40.452Z,8.28
2018-12-20T14:12:40.393Z,8.22
2018-12-20T14:13:40.332Z,8.22
2018-12-20T14:14:40.271Z,8.29
2018-12-20T14:15:40.209Z,8.28
2018-12-20T14:16:40.151Z,8.22
2018-12-20T14:17:40.090Z,8.30
2018-12-20T14:18:40.031Z,8.25
2018-12-20T14:19:39.970Z,8.26
2018-12-20T14:20:39.911Z,8.18
2018-12-20T14:21:39.850Z,8.22
2018-12-20T14:22:39.788Z,8.26
2018-12-20T14:23:39.730Z,8.17
2018-12-20T14:24:39.673Z,8.30
2018-12-20T14:25:39.609Z,8.26
2018-12-20T14:26:39.549Z,8.22
2018-12-20T14:27:39.488Z,8.22
2018-12-20T14:28:39.435Z,8.28
2018-12-20T14:29:39.371Z,8.22
2018-12-20T14:30:39.311Z,8.26
2018-12-20T14:31:39.249Z,8.35
2018-12-20T14:32:39.186Z,8.20
2018-12-20T14:33:39.128Z,8.25
2018-12-20T14:34:39.066Z,8.29
2018-12-20T14:35:39.006Z,8.36
2018-12-20T14:36:38.946Z,8.22
2018-12-20T14:37:38.888Z,8.20
2018-12-20T14:38:38.825Z,8.20
2018-12-20T14:39:38.765Z,8.26
2018-12-20T14:40:38.705Z,8.30
2018-12-20T14:41:38.645Z,8.20
2018-12-20T14:42:38.585Z,8.30
2018-12-20T14:43:38.525Z,8.35
2018-12-20T14:44:38.467Z,8.29
2018-12-20T14:45:38.403Z,8.36
2018-12-20T14:46:38.345Z,8.26
2018-12-20T14:47:38.282Z,8.29
2018-12-20T14:48:39.452Z,8.26
2018-12-20T14:49:38.165Z,8.33
2018-12-20T14:50:38.104Z,8.36
2018-12-20T14:51:38.045Z,8.33
2018-12-20T14:52:37.987Z,8.29
2018-12-20T14:53:37.954Z,8.33
2018-12-20T14:54:37.862Z,8.33
2018-12-20T14:55:37.803Z,8.33
2018-12-20T14:56:37.741Z,8.30
2018-12-20T14:57:37.683Z,8.30
2018-12-20T14:58:37.621Z,8.33
2018-12-20T14:59:37.571Z,8.33
2018-12-20T15:00:45.234Z,8.29
2018-12-20T15:02:32.503Z,8.33
2018-12-20T15:03:32.413Z,8.32
2018-12-20T15:04:32.352Z,8.32
2018-12-20T15:05:32.295Z,8.33
2018-12-20T15:06:32.232Z,8.30
2018-12-20T15:07:32.171Z,8.35
2018-12-20T15:08:32.109Z,8.36
2018-12-20T15:09:32.056Z,8.35
2018-12-20T15:10:31.991Z,8.32
2018-12-20T15:11:31.930Z,8.28
2018-12-20T15:12:31.873Z,8.35
2018-12-20T15:13:31.811Z,8.35
2018-12-20T15:14:31.749Z,8.29
2018-12-20T15:15:31.691Z,8.30
2018-12-20T15:16:31.638Z,8.32
2018-12-20T15:17:31.569Z,8.29
2018-12-20T15:18:31.511Z,8.33
2018-12-20T15:19:31.450Z,8.33
2018-12-20T15:20:31.388Z,8.32
2018-12-20T15:21:31.330Z,8.35
2018-12-20T15:22:31.274Z,8.29
2018-12-20T15:23:31.206Z,8.22
2018-12-20T15:24:31.149Z,8.32
2018-12-20T15:25:31.087Z,8.37
2018-12-20T15:26:31.029Z,8.29
2018-12-20T15:27:30.966Z,8.30
2018-12-20T15:28:30.907Z,8.33
2018-12-20T15:29:30.853Z,8.33
2018-12-20T15:30:30.788Z,8.33
2018-12-20T15:31:30.727Z,8.29
2018-12-20T15:32:30.666Z,8.35
2018-12-20T15:33:30.606Z,8.35
2018-12-20T15:34:30.546Z,8.33
2018-12-20T15:35:30.488Z,8.32
2018-12-20T15:36:30.427Z,8.33
2018-12-20T15:37:30.366Z,8.29
2018-12-20T15:38:30.307Z,8.35
2018-12-20T15:39:30.245Z,8.29
2018-12-20T15:40:30.184Z,8.32
2018-12-20T15:41:30.128Z,8.35
2018-12-20T15:42:30.067Z,8.33
2018-12-20T15:43:30.004Z,8.35
2018-12-20T15:44:29.944Z,8.32
2018-12-20T15:45:29.885Z,8.30
2018-12-20T15:46:29.826Z,8.35
2018-12-20T15:47:29.765Z,8.30
2018-12-20T15:48:29.704Z,8.40
2018-12-20T15:49:29.644Z,8.35
2018-12-20T15:50:29.586Z,8.30
2018-12-20T15:51:29.523Z,8.35
2018-12-20T15:52:29.462Z,8.29
2018-12-20T15:53:29.405Z,8.32
2018-12-20T15:54:29.344Z,8.40
2018-12-20T15:55:29.288Z,8.36
2018-12-20T15:56:29.222Z,8.33
2018-12-20T15:57:29.162Z,8.35
2018-12-20T15:58:29.103Z,8.29
2018-12-20T15:59:29.045Z,8.29
2018-12-20T16:00:28.985Z,8.32
2018-12-20T16:01:28.923Z,8.29
2018-12-20T16:02:28.864Z,8.33
2018-12-20T16:03:28.803Z,8.37
2018-12-20T16:04:29.743Z,8.33
2018-12-20T16:05:28.681Z,8.25
2018-12-20T16:06:28.626Z,8.36
2018-12-20T16:07:28.561Z,8.30
2018-12-20T16:08:28.500Z,8.28
2018-12-20T16:09:28.468Z,8.36
2018-12-20T16:10:28.382Z,8.33
2018-12-20T16:11:28.323Z,8.35
2018-12-20T16:12:28.261Z,8.29
2018-12-20T16:13:28.200Z,8.29
2018-12-20T16:14:28.144Z,8.33
2018-12-20T16:15:28.080Z,8.37
2018-12-20T16:16:28.036Z,8.29
2018-12-20T16:17:27.959Z,8.36
2018-12-20T16:18:27.901Z,8.35
2018-12-20T16:19:27.840Z,8.28
2018-12-20T16:20:27.779Z,8.30
2018-12-20T16:21:27.721Z,8.40
2018-12-20T16:22:27.659Z,8.35
2018-12-20T16:23:27.599Z,8.32
2018-12-20T16:24:27.540Z,8.29
2018-12-20T16:25:27.482Z,8.32
2018-12-20T16:26:27.424Z,8.30
2018-12-20T16:27:27.369Z,8.36
2018-12-20T16:28:27.300Z,8.36
2018-12-20T16:29:27.257Z,8.35
2018-12-20T16:30:27.177Z,8.33
2018-12-20T16:31:27.117Z,8.33
2018-12-20T16:32:27.066Z,8.35
2018-12-20T16:33:26.997Z,8.28
2018-12-20T16:34:26.949Z,8.33
2018-12-20T16:35:26.880Z,8.36
2018-12-20T16:36:26.818Z,8.29
2018-12-20T16:37:26.767Z,8.33
2018-12-20T16:38:26.699Z,8.29
2018-12-20T16:39:26.636Z,8.32
2018-12-20T16:40:26.602Z,8.35
2018-12-20T16:41:26.517Z,8.29
2018-12-20T16:42:26.459Z,8.36
2018-12-20T16:43:26.399Z,8.35
2018-12-20T16:44:26.338Z,8.33
2018-12-20T16:45:26.277Z,8.35
2018-12-20T16:46:26.215Z,8.35
2018-12-20T16:47:26.154Z,8.35
2018-12-20T16:48:26.095Z,8.35
2018-12-20T16:49:26.050Z,8.37
2018-12-20T16:50:25.975Z,8.32
2018-12-20T16:51:25.916Z,8.29
2018-12-20T16:52:25.858Z,8.29
2018-12-20T16:53:25.795Z,8.29
2018-12-20T16:54:25.735Z,8.32
2018-12-20T16:55:25.674Z,8.33
2018-12-20T16:56:25.614Z,8.40
2018-12-20T16:57:25.556Z,8.33
2018-12-20T16:58:25.494Z,8.32
2018-12-20T16:59:25.433Z,8.35
2018-12-20T17:00:25.379Z,8.28
2018-12-20T17:01:25.315Z,8.28
2018-12-20T17:02:25.254Z,8.30
2018-12-20T17:03:25.192Z,8.32
2018-12-20T17:04:25.134Z,8.30
2018-12-20T17:05:25.075Z,8.30
2018-12-20T17:06:25.016Z,8.35
2018-12-20T17:07:24.968Z,8.32
2018-12-20T17:08:24.894Z,8.33
2018-12-20T17:09:24.847Z,8.26
2018-12-20T17:10:24.808Z,8.32
2018-12-20T17:11:24.745Z,8.26
2018-12-20T17:12:24.655Z,8.33